Time;durP1;ratioP1;P1;durP2;ratioP2;P2;SDS_P1;SDS_P2;PMS_P1;PMS_P2;Temp;Humidity;BMP_temperature;BMP_pressure;BME280_temperature;BME280_humidity;BME280_pressure;Samples;Min_cycle;Max_cycle;Signal;HPM_P1;HPM_P2
2023/04/09 00:00:40;;;;;;;;;;;;;;;20.01;44.54;102193.50;4969073;28;2674;-62
2023/04/09 00:03:06;;;;;;;;;;;;;;;20.01;44.49;102193.50;4969109;28;2465;-62
2023/04/09 00:05:37;;;;;;;;;;;;;;;20.00;44.58;102197.75;4969452;28;2508;-62
2023/04/09 00:08:03;;;;;;;;;;;;;;;20.00;44.60;102197.75;4966897;28;1576;-62
2023/04/09 00:10:29;;;;;;;;;;;;;;;20.00;44.55;102200.63;4967021;28;2614;-62
2023/04/09 00:12:56;;;;;;;;;;;;;;;19.99;44.63;102189.72;4970457;28;1620;-62
2023/04/09 00:15:22;;;;;;;;;;;;;;;19.99;44.46;102195.47;4969145;28;2706;-62
2023/04/09 00:17:56;;;;;;;;;;;;;;;19.98;44.48;102194.72;4969362;28;1981;-62
2023/04/09 00:20:23;;;;;;;;;;;;;;;19.99;44.46;102195.47;4968450;28;2628;-62
2023/04/09 00:22:50;;;;;;;;;;;;;;;19.99;44.59;102193.34;4967857;28;1866;-62
2023/04/09 00:25:17;;;;;;;;;;;;;;;19.97;44.55;102193.22;4969570;28;1596;-62
2023/04/09 00:27:43;;;;;;;;;;;;;;;19.98;44.56;102188.97;4968424;28;2232;-62
2023/04/09 00:30:10;;;;;;;;;;;;;;;19.98;44.41;102188.22;4950996;28;2113;-61
2023/04/09 00:32:36;;;;;;;;;;;;;;;20.00;44.43;102192.00;4951615;28;1598;-62
2023/04/09 00:35:03;;;;;;;;;;;;;;;20.02;44.27;102200.75;4968709;28;1664;-62
2023/04/09 00:37:29;;;;;;;;;;;;;;;20.03;44.44;102196.50;4969286;28;2430;-62
2023/04/09 00:39:56;;;;;;;;;;;;;;;20.05;44.66;102199.53;4967702;28;2500;-62
2023/04/09 00:42:22;;;;;;;;;;;;;;;20.06;44.65;102206.78;4967963;28;2377;-62
2023/04/09 00:44:48;;;;;;;;;;;;;;;20.05;44.70;102193.78;4968367;28;2424;-62
2023/04/09 00:47:15;;;;;;;;;;;;;;;20.06;44.64;102191.66;4968148;28;2615;-62
2023/04/09 00:49:41;;;;;;;;;;;;;;;20.06;44.75;102188.78;4969401;28;2651;-62
2023/04/09 00:52:08;;;;;;;;;;;;;;;20.05;44.73;102188.03;4969030;28;2568;-62
2023/04/09 00:54:34;;;;;;;;;;;;;;;20.04;44.77;102192.28;4966213;28;2667;-62
2023/04/09 00:57:00;;;;;;;;;;;;;;;20.03;44.77;102190.75;4968967;28;2687;-62
2023/04/09 00:59:26;;;;;;;;;;;;;;;20.02;44.71;102194.25;4968919;28;1571;-62
2023/04/09 01:01:53;;;;;;;;;;;;;;;20.02;44.78;102188.50;4966207;28;2332;-62
2023/04/09 01:04:20;;;;;;;;;;;;;;;20.00;44.67;102194.13;4965975;28;2736;-62
2023/04/09 01:06:49;;;;;;;;;;;;;;;19.99;44.63;102199.09;4966537;28;2647;-62
2023/04/09 01:09:32;;;;;;;;;;;;;;;19.99;44.69;102196.22;4951926;28;2694;-62
2023/04/09 01:12:00;;;;;;;;;;;;;;;19.98;44.73;102200.47;4968372;28;1731;-62
2023/04/09 01:14:29;;;;;;;;;;;;;;;19.98;44.74;102206.22;4947223;28;2719;-62
2023/04/09 01:16:56;;;;;;;;;;;;;;;19.97;44.81;102210.47;4950723;28;2619;-62
2023/04/09 01:19:31;;;;;;;;;;;;;;;19.96;44.70;102197.47;4965485;28;1771;-62
2023/04/09 01:21:58;;;;;;;;;;;;;;;19.96;44.65;102193.84;4965865;28;1841;-62
2023/04/09 01:24:30;;;;;;;;;;;;;;;19.96;44.64;102197.47;4951421;28;1705;-62
2023/04/09 01:26:58;;;;;;;;;;;;;;;19.95;44.77;102198.84;4948448;28;2641;-62
2023/04/09 01:29:32;;;;;;;;;;;;;;;19.94;44.68;102194.44;4946239;28;1878;-62
2023/04/09 01:31:59;;;;;;;;;;;;;;;19.95;44.63;102192.31;4948461;28;1733;-62
2023/04/09 01:34:25;;;;;;;;;;;;;;;19.93;44.67;102192.94;4966160;28;1766;-62
2023/04/09 01:36:53;;;;;;;;;;;;;;;19.94;44.57;102193.69;4961264;28;2351;-62
2023/04/09 01:39:19;;;;;;;;;;;;;;;19.93;44.59;102198.69;4967850;28;2489;-62
2023/04/09 01:41:46;;;;;;;;;;;;;;;19.93;44.46;102203.66;4965924;28;2572;-62
2023/04/09 01:44:12;;;;;;;;;;;;;;;19.93;44.55;102197.91;4948057;28;2206;-62
2023/04/09 01:54:47;;;;;;;;;;;;;;;19.90;44.38;102202.03;4967709;28;2579;-62
2023/04/09 01:57:14;;;;;;;;;;;;;;;19.90;44.29;102199.91;4967053;28;2731;-62
2023/04/09 01:59:40;;;;;;;;;;;;;;;19.88;44.41;102200.53;4957657;28;2548;-62
2023/04/09 02:02:08;;;;;;;;;;;;;;;19.89;44.25;102201.28;4973063;28;2004;-61
2023/04/09 02:04:39;;;;;;;;;;;;;;;19.88;44.30;102202.63;4941492;28;2636;-62
2023/04/09 02:07:08;;;;;;;;;;;;;;;19.88;44.27;102202.63;4973549;28;2635;-62
2023/04/09 02:09:35;;;;;;;;;;;;;;;19.87;44.27;102206.88;4956440;28;1602;-62
2023/04/09 02:12:02;;;;;;;;;;;;;;;19.87;44.40;102209.75;4972835;28;1940;-62
2023/04/09 02:14:29;;;;;;;;;;;;;;;19.86;44.30;102211.13;4957112;28;2135;-62
2023/04/09 02:16:55;;;;;;;;;;;;;;;19.84;44.18;102206.00;4933828;28;2342;-62
2023/04/09 02:19:22;;;;;;;;;;;;;;;19.84;44.25;102202.38;4956293;28;3259;-62
2023/04/09 02:21:48;;;;;;;;;;;;;;;19.84;44.17;102208.13;4971259;28;1960;-62
2023/04/09 02:24:14;;;;;;;;;;;;;;;19.85;44.09;102209.63;4973570;28;1716;-62
2023/04/09 02:26:41;;;;;;;;;;;;;;;19.83;44.19;102201.59;4972536;28;1814;-62
2023/04/09 02:29:07;;;;;;;;;;;;;;;19.82;44.19;102205.09;4973441;28;2659;-62
2023/04/09 02:31:33;;;;;;;;;;;;;;;19.83;44.16;102209.47;4971530;28;2542;-62
2023/04/09 02:34:00;;;;;;;;;;;;;;;19.82;44.15;102210.84;4952698;28;2378;-62
2023/04/09 02:36:26;;;;;;;;;;;;;;;19.82;44.25;102213.72;4969539;28;1689;-62
2023/04/09 02:38:53;;;;;;;;;;;;;;;19.82;44.27;102216.59;4975250;28;2355;-62
2023/04/09 02:41:20;;;;;;;;;;;;;;;19.82;44.27;102210.84;4974975;28;2540;-62
2023/04/09 02:43:46;;;;;;;;;;;;;;;19.85;44.13;102212.50;4948419;28;1923;-62
2023/04/09 02:46:13;;;;;;;;;;;;;;;19.89;44.06;102209.91;4975430;28;1861;-62
2023/04/09 02:48:40;;;;;;;;;;;;;;;19.90;44.39;102210.66;4971274;28;2599;-62
2023/04/09 02:51:07;;;;;;;;;;;;;;;19.91;44.38;102210.06;4972191;28;2711;-62
2023/04/09 02:53:33;;;;;;;;;;;;;;;19.92;44.60;102202.91;4973886;28;2501;-62
2023/04/09 02:55:59;;;;;;;;;;;;;;;19.92;44.57;102197.16;4973601;28;1631;-62
2023/04/09 02:58:26;;;;;;;;;;;;;;;19.95;44.61;102203.81;4970027;28;2640;-62
2023/04/09 03:00:52;;;;;;;;;;;;;;;19.96;44.53;102203.22;4969234;28;2712;-62
2023/04/09 03:03:18;;;;;;;;;;;;;;;19.97;44.59;102203.97;4953761;28;2326;-61
2023/04/09 03:05:45;;;;;;;;;;;;;;;19.99;44.39;102198.34;4966609;28;1926;-62
2023/04/09 03:08:11;;;;;;;;;;;;;;;19.99;44.49;102201.97;4968601;28;1872;-62
2023/04/09 03:10:38;;;;;;;;;;;;;;;20.00;44.44;102197.75;4954078;28;2505;-62
2023/04/09 03:13:04;;;;;;;;;;;;;;;20.00;44.54;102194.88;4971076;28;1642;-62
2023/04/09 03:15:31;;;;;;;;;;;;;;;20.00;44.44;102194.88;4953130;28;2572;-62
2023/04/09 03:17:57;;;;;;;;;;;;;;;20.01;44.63;102192.75;4953883;28;1918;-62
2023/04/09 03:20:23;;;;;;;;;;;;;;;20.01;44.47;102199.25;4970298;28;2251;-62
2023/04/09 03:22:50;;;;;;;;;;;;;;;20.00;44.60;102206.38;4970098;28;1705;-62
2023/04/09 03:25:25;;;;;;;;;;;;;;;20.00;44.72;102199.88;4970487;28;2484;-62
2023/04/09 03:27:53;;;;;;;;;;;;;;;20.00;44.83;102206.38;4968859;28;1742;-62
2023/04/09 03:30:32;;;;;;;;;;;;;;;20.00;44.55;102209.25;4952938;28;2194;-62
2023/04/09 03:33:01;;;;;;;;;;;;;;;20.00;44.68;102202.75;4967247;28;1658;-62
2023/04/09 03:35:30;;;;;;;;;;;;;;;20.02;44.67;102205.75;4951746;28;1727;-62
2023/04/09 03:37:58;;;;;;;;;;;;;;;20.02;44.68;102200.75;4953115;28;2051;-62
2023/04/09 03:40:25;;;;;;;;;;;;;;;20.02;44.50;102200.75;4951124;28;2548;-61
2023/04/09 03:42:51;;;;;;;;;;;;;;;20.03;44.38;102192.88;4970001;28;3257;-62
2023/04/09 03:45:18;;;;;;;;;;;;;;;20.05;44.52;102193.03;4953429;28;1762;-62
2023/04/09 03:47:46;;;;;;;;;;;;;;;20.05;44.54;102188.03;4967821;28;1994;-62
2023/04/09 03:50:13;;;;;;;;;;;;;;;20.04;44.41;102189.41;4952877;28;1754;-62
2023/04/09 03:52:47;;;;;;;;;;;;;;;20.05;44.68;102190.91;4953967;28;1885;-62
2023/04/09 03:55:14;;;;;;;;;;;;;;;20.03;44.62;102185.00;4969995;28;2429;-62
2023/04/09 03:57:40;;;;;;;;;;;;;;;20.03;44.62;102185.00;4952808;28;1915;-62
2023/04/09 04:00:11;;;;;;;;;;;;;;;20.04;44.58;102191.50;4953310;28;1712;-61
2023/04/09 04:03:05;;;;;;;;;;;;;;;20.03;44.59;102193.63;4968305;28;2622;-62
2023/04/09 04:06:01;;;;;;;;;;;;;;;20.03;44.55;102184.25;4945000;28;1605;-62
2023/04/09 04:08:36;;;;;;;;;;;;;;;20.02;44.66;102189.25;4964753;28;1716;-62
2023/04/09 04:11:03;;;;;;;;;;;;;;;20.05;44.64;102184.41;4966204;28;2563;-62
2023/04/09 04:13:30;;;;;;;;;;;;;;;20.05;44.50;102181.53;4948949;28;1966;-62
2023/04/09 04:15:59;;;;;;;;;;;;;;;20.05;44.49;102193.03;4944695;28;2415;-62
2023/04/09 04:18:26;;;;;;;;;;;;;;;20.06;44.44;102188.78;4952868;28;1972;-62
2023/04/09 04:20:52;;;;;;;;;;;;;;;20.06;44.57;102198.16;4951665;28;2413;-62
2023/04/09 04:23:19;;;;;;;;;;;;;;;20.08;44.48;102198.28;4969448;28;1713;-62
2023/04/09 04:25:52;;;;;;;;;;;;;;;20.09;44.46;102205.56;4960799;28;2635;-62
2023/04/09 04:28:24;;;;;;;;;;;;;;;20.09;44.40;102205.56;4947389;28;2579;-62
2023/04/09 04:30:50;;;;;;;;;;;;;;;20.11;44.46;102204.19;4968667;28;2687;-62
2023/04/09 04:33:17;;;;;;;;;;;;;;;20.10;44.49;102212.06;4967673;28;2023;-62
2023/04/09 04:35:49;;;;;;;;;;;;;;;20.10;44.38;102217.81;4950166;28;2588;-62
2023/04/09 04:38:41;;;;;;;;;;;;;;;20.09;44.46;102222.81;4966401;28;2763;-62
2023/04/09 04:41:15;;;;;;;;;;;;;;;20.09;44.57;102222.06;4950547;28;2663;-62
2023/04/09 04:43:48;;;;;;;;;;;;;;;20.08;44.51;102215.53;4951359;28;2484;-62
2023/04/09 04:46:19;;;;;;;;;;;;;;;20.07;44.61;102222.69;4949082;28;2585;-62
2023/04/09 04:48:46;;;;;;;;;;;;;;;20.05;44.42;102213.91;4952810;28;2109;-62
2023/04/09 04:51:13;;;;;;;;;;;;;;;20.06;44.59;102218.28;4960391;28;2399;-61
2023/04/09 04:53:45;;;;;;;;;;;;;;;19.92;44.85;102217.28;4944415;28;2576;-61
2023/04/09 04:56:13;;;;;;;;;;;;;;;19.99;44.55;102218.47;4950969;28;1794;-62
2023/04/09 04:58:48;;;;;;;;;;;;;;;20.02;44.56;102217.25;4939885;28;2640;-61
2023/04/09 05:01:16;;;;;;;;;;;;;;;20.08;44.34;102221.28;4967444;28;1749;-61
2023/04/09 05:03:43;;;;;;;;;;;;;;;20.11;44.07;102221.44;4950172;28;2671;-62
2023/04/09 05:06:28;;;;;;;;;;;;;;;20.12;44.28;102228.72;4950821;28;1818;-61
2023/04/09 05:09:00;;;;;;;;;;;;;;;20.12;44.32;102225.84;4949944;28;2658;-62
2023/04/09 05:11:34;;;;;;;;;;;;;;;20.12;44.32;102231.59;4966895;28;1938;-62
2023/04/09 05:14:02;;;;;;;;;;;;;;;20.12;44.37;102231.59;4942349;28;1739;-62
2023/04/09 05:16:28;;;;;;;;;;;;;;;20.10;44.20;102229.31;4961396;28;2604;-62
2023/04/09 05:19:01;;;;;;;;;;;;;;;20.10;44.32;102226.44;4948954;28;2602;-61
2023/04/09 05:21:27;;;;;;;;;;;;;;;20.09;44.34;102227.81;4944713;28;2599;-62
2023/04/09 05:23:55;;;;;;;;;;;;;;;20.08;44.29;102226.31;4967162;28;2376;-61
2023/04/09 05:26:22;;;;;;;;;;;;;;;20.11;44.45;102224.31;4966285;28;2591;-61
2023/04/09 05:28:53;;;;;;;;;;;;;;;20.12;44.41;102231.59;4949987;28;2600;-61
2023/04/09 05:31:21;;;;;;;;;;;;;;;20.11;44.35;102225.06;4965952;28;2680;-62
2023/04/09 05:33:54;;;;;;;;;;;;;;;20.12;44.30;102238.09;4967854;28;2127;-61
2023/04/09 05:36:31;;;;;;;;;;;;;;;20.13;44.30;102233.84;4963254;28;1848;-62
2023/04/09 05:38:58;;;;;;;;;;;;;;;20.13;44.48;102233.84;4963496;28;1911;-62
2023/04/09 05:41:25;;;;;;;;;;;;;;;20.14;44.33;102240.38;4944064;28;2688;-62
2023/04/09 05:44:04;;;;;;;;;;;;;;;20.16;44.45;102234.72;4963265;28;2060;-61
2023/04/09 05:46:31;;;;;;;;;;;;;;;20.15;44.47;102242.59;4946663;28;1806;-61
2023/04/09 05:48:58;;;;;;;;;;;;;;;20.16;44.52;102237.59;4947815;28;1875;-62
2023/04/09 05:51:26;;;;;;;;;;;;;;;20.14;44.33;102249.75;4961969;28;2638;-62
2023/04/09 05:53:54;;;;;;;;;;;;;;;20.14;44.30;102246.88;4946444;28;2683;-62
2023/04/09 05:56:24;;;;;;;;;;;;;;;20.15;44.44;102253.38;4944683;28;1840;-61
2023/04/09 05:58:54;;;;;;;;;;;;;;;20.14;44.44;102257.63;4942932;28;1914;-61
2023/04/09 06:01:21;;;;;;;;;;;;;;;20.13;44.56;102256.09;4947795;28;1710;-62
2023/04/09 06:03:47;;;;;;;;;;;;;;;20.12;44.40;102260.34;4945954;28;2643;-62
2023/04/09 06:06:14;;;;;;;;;;;;;;;20.12;44.50;102260.34;4948431;28;1854;-61
2023/04/09 06:08:41;;;;;;;;;;;;;;;20.11;44.37;102248.06;4944629;28;1724;-62
2023/04/09 06:11:09;;;;;;;;;;;;;;;20.14;44.46;102261.25;4948512;28;1593;-61
2023/04/09 06:13:35;;;;;;;;;;;;;;;20.17;44.41;102256.38;4945414;28;2498;-61
2023/04/09 06:16:05;;;;;;;;;;;;;;;20.16;44.54;102260.59;4949522;28;1768;-62
2023/04/09 06:18:31;;;;;;;;;;;;;;;20.17;44.44;102259.25;4947958;28;1973;-61
2023/04/09 06:21:04;;;;;;;;;;;;;;;20.16;44.40;102263.47;4949013;28;1672;-61
2023/04/09 06:23:31;;;;;;;;;;;;;;;20.17;44.53;102256.38;4946932;28;2652;-62
2023/04/09 06:25:57;;;;;;;;;;;;;;;20.16;44.48;102263.47;4945918;28;2564;-61
2023/04/09 06:28:24;;;;;;;;;;;;;;;20.16;44.43;102260.59;4947825;28;1744;-62
2023/04/09 06:30:52;;;;;;;;;;;;;;;20.14;44.60;102263.38;4948652;28;2666;-61
2023/04/09 06:33:19;;;;;;;;;;;;;;;20.16;44.48;102267.13;4952006;28;2371;-61
2023/04/09 06:35:45;;;;;;;;;;;;;;;20.16;44.60;102257.72;4961287;28;1863;-62
2023/04/09 06:38:11;;;;;;;;;;;;;;;20.17;44.49;102250.63;4968168;28;2711;-61
2023/04/09 06:40:38;;;;;;;;;;;;;;;20.16;44.57;102249.88;4967128;28;2778;-62
2023/04/09 06:43:04;;;;;;;;;;;;;;;20.17;44.37;102253.50;4971435;28;2137;-61
2023/04/09 06:45:42;;;;;;;;;;;;;;;20.19;44.41;102253.66;4946750;28;2709;-62
2023/04/09 06:48:09;;;;;;;;;;;;;;;20.16;44.44;102243.34;4971426;28;1927;-68
2023/04/09 06:50:36;;;;;;;;;;;;;;;20.18;44.22;102252.91;4972321;28;1666;-63
2023/04/09 06:53:02;;;;;;;;;;;;;;;20.22;43.87;102258.16;4971485;28;1655;-63
2023/04/09 06:55:28;;;;;;;;;;;;;;;20.24;43.95;102255.44;4970927;28;2144;-63
2023/04/09 06:57:55;;;;;;;;;;;;;;;20.23;43.65;102265.44;4966125;28;2635;-63
2023/04/09 07:00:22;;;;;;;;;;;;;;;20.22;43.75;102263.91;4969936;28;1914;-63
2023/04/09 07:02:48;;;;;;;;;;;;;;;20.21;43.35;102263.16;4971092;28;2825;-64
2023/04/09 07:05:15;;;;;;;;;;;;;;;20.21;43.65;102262.41;4970798;28;2580;-64
2023/04/09 07:07:41;;;;;;;;;;;;;;;20.21;43.74;102268.19;4969777;28;2703;-63
2023/04/09 07:10:08;;;;;;;;;;;;;;;20.22;43.32;102264.66;4969025;28;2659;-63
2023/04/09 07:12:34;;;;;;;;;;;;;;;20.22;43.48;102275.41;4969929;28;2743;-63
2023/04/09 07:15:01;;;;;;;;;;;;;;;20.23;43.70;102276.94;4969974;28;1649;-63
2023/04/09 07:17:27;;;;;;;;;;;;;;;20.23;43.66;102271.94;4967013;28;1938;-64
2023/04/09 07:19:54;;;;;;;;;;;;;;;20.24;44.07;102273.44;4970950;28;1946;-63
2023/04/09 07:22:21;;;;;;;;;;;;;;;20.24;44.09;102272.69;4969670;28;2588;-63
2023/04/09 07:24:52;;;;;;;;;;;;;;;20.25;44.04;102277.09;4970411;28;1638;-63
2023/04/09 07:27:19;;;;;;;;;;;;;;;20.24;44.19;102278.44;4971492;28;1741;-63
2023/04/09 07:29:46;;;;;;;;;;;;;;;20.25;44.19;102291.47;4969404;28;2587;-63
2023/04/09 07:32:12;;;;;;;;;;;;;;;20.25;44.11;102286.47;4968175;28;2944;-63
2023/04/09 07:34:39;;;;;;;;;;;;;;;20.25;44.09;102279.97;4968705;28;2714;-64
2023/04/09 07:37:05;;;;;;;;;;;;;;;20.27;44.12;102288.72;4969628;28;1871;-63
2023/04/09 07:39:32;;;;;;;;;;;;;;;20.20;44.22;102283.91;4969023;28;2706;-63
2023/04/09 07:42:01;;;;;;;;;;;;;;;20.01;44.14;102288.38;4969790;28;2574;-63
2023/04/09 07:44:28;;;;;;;;;;;;;;;19.93;44.04;102290.69;4969845;28;2218;-63
2023/04/09 07:46:54;;;;;;;;;;;;;;;19.90;43.68;102297.66;4970108;28;1658;-63
2023/04/09 07:49:21;;;;;;;;;;;;;;;19.89;43.29;102299.03;4969308;28;2544;-63
2023/04/09 07:51:47;;;;;;;;;;;;;;;19.84;42.87;102291.50;4969771;28;3076;-63
2023/04/09 07:54:13;;;;;;;;;;;;;;;19.81;42.51;102289.81;4968719;28;2590;-63
2023/04/09 07:56:40;;;;;;;;;;;;;;;19.80;42.17;102291.19;4969263;28;3068;-63
2023/04/09 07:59:06;;;;;;;;;;;;;;;19.75;42.07;102304.53;4969622;28;2167;-63
2023/04/09 08:01:32;;;;;;;;;;;;;;;19.83;41.92;102302.22;4968946;28;2508;-64
2023/04/09 08:03:59;;;;;;;;;;;;;;;19.92;41.20;102297.81;4969181;28;2603;-65
2023/04/09 08:06:25;;;;;;;;;;;;;;;20.02;41.21;102303.50;4969392;28;2579;-63
2023/04/09 08:08:52;;;;;;;;;;;;;;;20.08;41.42;102301.81;4969304;28;2693;-64
2023/04/09 08:11:24;;;;;;;;;;;;;;;20.15;41.75;102296.50;4952169;28;2670;-63
2023/04/09 08:13:50;;;;;;;;;;;;;;;20.23;41.94;102292.06;4969301;28;2595;-63
2023/04/09 08:16:17;;;;;;;;;;;;;;;20.22;42.14;102295.56;4966826;28;2420;-67
2023/04/09 08:18:43;;;;;;;;;;;;;;;19.95;42.03;102310.19;4968393;28;2655;-66
2023/04/09 08:21:10;;;;;;;;;;;;;;;19.23;40.41;102305.78;4965984;28;2578;-66
2023/04/09 08:23:36;;;;;;;;;;;;;;;19.21;39.89;102305.63;4967387;28;3019;-66
2023/04/09 08:26:02;;;;;;;;;;;;;;;19.55;39.89;102303.78;4968188;28;1709;-66
2023/04/09 08:28:29;;;;;;;;;;;;;;;19.78;40.29;102302.53;4968548;28;1852;-66
2023/04/09 08:30:55;;;;;;;;;;;;;;;19.90;40.51;102299.78;4968577;28;1743;-66
2023/04/09 08:33:22;;;;;;;;;;;;;;;19.97;40.56;102302.47;4968980;28;2073;-66
2023/04/09 08:35:48;;;;;;;;;;;;;;;20.01;40.84;102305.63;4968336;28;1758;-66
2023/04/09 08:38:15;;;;;;;;;;;;;;;20.05;41.05;102296.56;4970656;28;1935;-66
2023/04/09 08:40:41;;;;;;;;;;;;;;;20.07;41.20;102306.06;4968978;28;1922;-66
2023/04/09 08:43:07;;;;;;;;;;;;;;;20.10;41.33;102298.34;4970086;28;2175;-66
2023/04/09 08:45:34;;;;;;;;;;;;;;;20.13;41.48;102310.75;4964479;28;1671;-66
2023/04/09 08:48:02;;;;;;;;;;;;;;;20.15;41.46;102310.88;4968766;28;1686;-66
2023/04/09 08:50:29;;;;;;;;;;;;;;;20.15;41.68;102297.25;4969179;28;1868;-66
2023/04/09 08:52:56;;;;;;;;;;;;;;;20.16;41.69;102306.63;4968011;28;1837;-66
2023/04/09 08:55:22;;;;;;;;;;;;;;;20.16;41.82;102304.53;4963395;28;1948;-66
2023/04/09 08:57:49;;;;;;;;;;;;;;;20.16;41.88;102307.41;4969873;28;1864;-66
2023/04/09 09:00:15;;;;;;;;;;;;;;;20.17;41.92;102305.28;4964905;28;1959;-66
2023/04/09 09:03:03;;;;;;;;;;;;;;;20.18;41.98;102301.03;4965465;28;1828;-66
2023/04/09 09:05:48;;;;;;;;;;;;;;;20.19;42.06;102302.53;4968045;28;1884;-66
2023/04/09 09:08:24;;;;;;;;;;;;;;;20.19;42.16;102294.66;4968166;28;1884;-66
2023/04/09 09:10:51;;;;;;;;;;;;;;;20.21;42.14;102297.69;4968884;28;1709;-65
2023/04/09 09:13:21;;;;;;;;;;;;;;;20.22;42.10;102293.44;4969788;28;1922;-66
2023/04/09 09:15:51;;;;;;;;;;;;;;;20.24;42.24;102292.81;4969967;28;1793;-66
2023/04/09 09:18:18;;;;;;;;;;;;;;;20.25;42.34;102291.47;4970206;28;1642;-66
2023/04/09 09:20:44;;;;;;;;;;;;;;;20.26;42.27;102287.22;4968016;28;2082;-66
2023/04/09 09:23:11;;;;;;;;;;;;;;;20.25;42.37;102297.22;4969603;28;1939;-66
2023/04/09 09:25:37;;;;;;;;;;;;;;;20.27;42.44;102300.22;4969379;28;1677;-66
2023/04/09 09:28:07;;;;;;;;;;;;;;;20.26;42.55;102296.59;4968668;28;1725;-66
2023/04/09 09:30:35;;;;;;;;;;;;;;;20.27;42.50;102294.47;4968872;28;1649;-66
2023/04/09 09:33:05;;;;;;;;;;;;;;;20.28;42.64;102290.25;4965925;28;1619;-66
2023/04/09 09:35:48;;;;;;;;;;;;;;;20.28;42.56;102293.88;4968584;28;1746;-66
2023/04/09 09:38:15;;;;;;;;;;;;;;;20.29;42.57;102292.50;4968934;28;1701;-66
2023/04/09 09:40:41;;;;;;;;;;;;;;;20.31;42.61;102283.25;4964598;28;1894;-66
2023/04/09 09:43:07;;;;;;;;;;;;;;;20.32;42.52;102279.03;4968628;28;2000;-66
2023/04/09 09:45:35;;;;;;;;;;;;;;;20.32;42.44;102279.03;4967538;28;1742;-66
2023/04/09 09:48:02;;;;;;;;;;;;;;;20.32;42.64;102278.25;4969439;28;1635;-66
2023/04/09 09:50:29;;;;;;;;;;;;;;;20.32;42.62;102281.91;4943614;28;1826;-66
2023/04/09 09:53:04;;;;;;;;;;;;;;;20.33;42.64;102274.75;4966573;28;1790;-66
2023/04/09 09:55:31;;;;;;;;;;;;;;;20.33;42.69;102271.88;4969314;28;1564;-66
2023/04/09 09:57:59;;;;;;;;;;;;;;;20.34;42.77;102270.53;4965388;28;1846;-66
2023/04/09 10:00:25;;;;;;;;;;;;;;;20.34;42.71;102275.50;4968792;28;1891;-66
2023/04/09 10:02:58;;;;;;;;;;;;;;;20.33;42.73;102274.75;4964561;28;1832;-66
2023/04/09 10:05:26;;;;;;;;;;;;;;;20.33;42.77;102277.63;4952346;28;1733;-65
2023/04/09 10:07:53;;;;;;;;;;;;;;;20.33;42.87;102265.38;4969023;28;1809;-65
2023/04/09 10:10:20;;;;;;;;;;;;;;;20.33;42.90;102268.25;4970163;28;1558;-66
2023/04/09 10:12:46;;;;;;;;;;;;;;;20.32;42.79;102261.75;4970905;28;1733;-66
2023/04/09 10:15:12;;;;;;;;;;;;;;;20.33;42.92;102262.50;4969858;28;1632;-66
2023/04/09 10:17:39;;;;;;;;;;;;;;;20.32;42.89;102258.88;4972608;28;1858;-66
2023/04/09 10:20:13;;;;;;;;;;;;;;;20.32;43.01;102253.13;4972105;28;1911;-66
2023/04/09 10:22:39;;;;;;;;;;;;;;;20.32;42.92;102255.22;4972462;28;1908;-66
2023/04/09 10:25:06;;;;;;;;;;;;;;;20.31;43.05;102254.47;4970178;28;1879;-66
2023/04/09 10:27:32;;;;;;;;;;;;;;;20.33;42.92;102254.63;4968814;28;1887;-66
2023/04/09 10:30:01;;;;;;;;;;;;;;;20.30;42.97;102247.22;4969772;28;1585;-66
2023/04/09 10:32:28;;;;;;;;;;;;;;;20.32;42.99;102244.50;4972135;28;1632;-66
2023/04/09 10:34:55;;;;;;;;;;;;;;;20.33;42.93;102246.00;4969228;28;1670;-66
2023/04/09 10:37:22;;;;;;;;;;;;;;;20.31;43.17;102248.72;4969995;28;1867;-66
2023/04/09 10:39:50;;;;;;;;;;;;;;;20.32;43.01;102244.50;4971648;28;2215;-65
2023/04/09 10:42:28;;;;;;;;;;;;;;;20.32;42.99;102253.13;4968959;28;2216;-65
2023/04/09 10:45:10;;;;;;;;;;;;;;;20.29;43.22;102242.81;4969962;28;1705;-66
2023/04/09 10:47:38;;;;;;;;;;;;;;;20.32;43.10;102250.25;4969660;28;1775;-66
2023/04/09 10:50:23;;;;;;;;;;;;;;;20.33;43.09;102245.25;4971664;28;1838;-66
2023/04/09 10:52:53;;;;;;;;;;;;;;;20.32;43.17;102250.25;4969163;28;1584;-66
2023/04/09 10:55:38;;;;;;;;;;;;;;;20.31;43.08;102248.72;4968065;28;1700;-66
2023/04/09 10:58:05;;;;;;;;;;;;;;;20.32;43.13;102250.25;4971778;28;1683;-66
2023/04/09 11:00:32;;;;;;;;;;;;;;;20.32;43.09;102250.25;4971559;28;1972;-66
2023/04/09 11:03:03;;;;;;;;;;;;;;;20.30;43.14;102252.97;4969189;28;2146;-66
2023/04/09 11:05:33;;;;;;;;;;;;;;;20.31;43.08;102248.72;4969145;28;1659;-66
2023/04/09 11:08:03;;;;;;;;;;;;;;;20.31;43.08;102248.72;4969522;28;1727;-66
2023/04/09 11:10:30;;;;;;;;;;;;;;;20.30;43.21;102241.47;4967208;28;1605;-66
2023/04/09 11:12:56;;;;;;;;;;;;;;;20.30;43.06;102241.47;4971566;28;1568;-66
2023/04/09 11:15:23;;;;;;;;;;;;;;;20.29;43.14;102239.94;4967538;28;1786;-66
2023/04/09 11:17:49;;;;;;;;;;;;;;;20.31;43.17;102240.09;4970576;28;1787;-66
2023/04/09 11:20:16;;;;;;;;;;;;;;;20.30;43.24;102238.59;4970384;28;2005;-66
2023/04/09 11:22:42;;;;;;;;;;;;;;;20.31;43.26;102234.34;4969623;28;1683;-66
2023/04/09 11:25:08;;;;;;;;;;;;;;;20.30;43.27;102235.72;4955741;28;1546;-66
2023/04/09 11:27:38;;;;;;;;;;;;;;;20.30;43.27;102236.47;4970503;28;1723;-66
2023/04/09 11:30:05;;;;;;;;;;;;;;;20.30;43.29;102235.72;4971143;28;1576;-66
2023/04/09 11:32:31;;;;;;;;;;;;;;;20.30;43.37;102238.59;4966562;28;1810;-66
2023/04/09 11:34:58;;;;;;;;;;;;;;;20.30;43.15;102247.22;4967530;28;1743;-66
2023/04/09 11:37:24;;;;;;;;;;;;;;;20.29;43.25;102237.06;4969955;28;1664;-66
2023/04/09 11:39:53;;;;;;;;;;;;;;;20.28;43.25;102242.09;4970306;28;1910;-66
2023/04/09 11:42:24;;;;;;;;;;;;;;;20.29;43.16;102234.19;4969260;28;1934;-66
2023/04/09 11:44:51;;;;;;;;;;;;;;;20.29;43.40;102231.31;4970099;28;1680;-66
2023/04/09 11:47:17;;;;;;;;;;;;;;;20.28;43.37;102226.94;4968980;28;1872;-66
2023/04/09 11:49:45;;;;;;;;;;;;;;;20.28;43.32;102224.81;4970959;28;1747;-66
2023/04/09 11:52:12;;;;;;;;;;;;;;;20.28;43.29;102221.19;4967037;28;1587;-66
2023/04/09 11:54:38;;;;;;;;;;;;;;;20.29;43.38;102229.22;4968381;28;1824;-66
2023/04/09 11:57:05;;;;;;;;;;;;;;;20.28;43.27;102221.19;4968614;28;1802;-66
2023/04/09 11:59:32;;;;;;;;;;;;;;;20.28;43.35;102210.44;4970528;28;1914;-66
2023/04/09 12:01:58;;;;;;;;;;;;;;;20.28;43.46;102215.44;4955812;28;1906;-66
2023/04/09 12:04:25;;;;;;;;;;;;;;;20.29;43.27;102211.97;4970720;28;1676;-66
2023/04/09 12:06:56;;;;;;;;;;;;;;;20.28;43.45;102206.81;4968445;28;1584;-66
2023/04/09 12:09:22;;;;;;;;;;;;;;;20.27;43.46;102208.94;4966132;28;1953;-66
2023/04/09 12:11:49;;;;;;;;;;;;;;;20.28;43.36;102209.69;4970991;28;1699;-66
2023/04/09 12:14:16;;;;;;;;;;;;;;;20.27;43.41;102211.81;4968399;28;1973;-66
2023/04/09 12:16:45;;;;;;;;;;;;;;;20.28;43.46;102203.94;4970215;28;1727;-66
2023/04/09 12:19:11;;;;;;;;;;;;;;;20.28;43.53;102203.94;4969719;28;1628;-66
2023/04/09 12:21:45;;;;;;;;;;;;;;;20.27;43.42;102205.28;4968220;28;1972;-66
2023/04/09 12:24:12;;;;;;;;;;;;;;;20.27;43.56;102211.03;4969935;28;1676;-66
2023/04/09 12:26:38;;;;;;;;;;;;;;;20.27;43.46;102208.16;4969559;28;1748;-66
2023/04/09 12:29:04;;;;;;;;;;;;;;;20.28;43.47;102201.06;4966728;28;1644;-66
2023/04/09 12:31:31;;;;;;;;;;;;;;;20.27;43.54;102203.19;4969509;28;1861;-66
2023/04/09 12:33:57;;;;;;;;;;;;;;;20.27;43.40;102200.31;4962958;28;1885;-66
2023/04/09 12:36:23;;;;;;;;;;;;;;;20.27;43.57;102196.66;4969729;28;1567;-66
2023/04/09 12:38:50;;;;;;;;;;;;;;;20.26;43.46;102195.16;4966090;28;1745;-66
2023/04/09 12:41:17;;;;;;;;;;;;;;;20.27;43.59;102190.91;4969876;28;1981;-66
2023/04/09 12:43:43;;;;;;;;;;;;;;;20.27;43.50;102188.81;4968247;28;2121;-66
2023/04/09 12:46:09;;;;;;;;;;;;;;;20.27;43.64;102191.69;4968371;28;1607;-66
2023/04/09 12:48:36;;;;;;;;;;;;;;;20.28;43.59;102192.44;4965954;28;1826;-66
2023/04/09 12:51:02;;;;;;;;;;;;;;;20.29;43.61;102188.94;4970341;28;1806;-66
2023/04/09 12:53:29;;;;;;;;;;;;;;;20.29;43.54;102191.81;4969458;28;1723;-66
2023/04/09 12:55:55;;;;;;;;;;;;;;;20.30;43.68;102183.94;4966199;28;1830;-66
2023/04/09 12:58:22;;;;;;;;;;;;;;;20.32;43.61;102186.97;4969829;28;1598;-66
2023/04/09 13:00:48;;;;;;;;;;;;;;;20.34;43.51;102184.22;4966566;28;1914;-66